sensor_id;sensor_type;location;lat;lon;timestamp;temperature;humidity
19966;DHT22;10144;50.874;4.762;2024-01-11T00:01:23;-4.10;99.90
19966;DHT22;10144;50.874;4.762;2024-01-11T00:03:52;-4.00;99.90
19966;DHT22;10144;50.874;4.762;2024-01-11T00:06:21;-4.00;99.90
19966;DHT22;10144;50.874;4.762;2024-01-11T00:08:50;-4.00;99.90
19966;DHT22;10144;50.874;4.762;2024-01-11T00:11:18;-4.10;99.90
19966;DHT22;10144;50.874;4.762;2024-01-11T00:13:47;-4.20;99.90
19966;DHT22;10144;50.874;4.762;2024-01-11T00:16:16;-4.30;99.90
19966;DHT22;10144;50.874;4.762;2024-01-11T00:18:45;-4.50;99.90
19966;DHT22;10144;50.874;4.762;2024-01-11T00:21:11;-4.60;99.90
19966;DHT22;10144;50.874;4.762;2024-01-11T00:23:38;-4.60;99.90
19966;DHT22;10144;50.874;4.762;2024-01-11T00:26:06;-4.60;99.90
19966;DHT22;10144;50.874;4.762;2024-01-11T00:28:38;-4.70;99.90
19966;DHT22;10144;50.874;4.762;2024-01-11T00:31:10;-4.50;99.90
19966;DHT22;10144;50.874;4.762;2024-01-11T00:33:36;-4.50;99.90
19966;DHT22;10144;50.874;4.762;2024-01-11T00:36:08;-4.50;99.90
19966;DHT22;10144;50.874;4.762;2024-01-11T00:38:39;-4.50;99.90
19966;DHT22;10144;50.874;4.762;2024-01-11T00:41:07;-4.30;99.90
19966;DHT22;10144;50.874;4.762;2024-01-11T00:43:34;-4.30;99.90
19966;DHT22;10144;50.874;4.762;2024-01-11T00:46:03;-4.40;99.90
19966;DHT22;10144;50.874;4.762;2024-01-11T00:48:30;-4.40;99.90
19966;DHT22;10144;50.874;4.762;2024-01-11T00:51:01;-4.40;99.90
19966;DHT22;10144;50.874;4.762;2024-01-11T00:53:30;-4.50;99.90
19966;DHT22;10144;50.874;4.762;2024-01-11T00:56:00;-4.50;99.90
19966;DHT22;10144;50.874;4.762;2024-01-11T00:58:39;-4.50;99.90
19966;DHT22;10144;50.874;4.762;2024-01-11T01:04:26;-4.50;99.90
19966;DHT22;10144;50.874;4.762;2024-01-11T01:06:55;-4.50;99.90
19966;DHT22;10144;50.874;4.762;2024-01-11T01:09:24;-4.60;99.90
19966;DHT22;10144;50.874;4.762;2024-01-11T01:11:51;-4.60;99.90
19966;DHT22;10144;50.874;4.762;2024-01-11T01:14:20;-4.70;99.90
19966;DHT22;10144;50.874;4.762;2024-01-11T01:16:49;-4.70;99.90
19966;DHT22;10144;50.874;4.762;2024-01-11T01:19:18;-4.80;99.90
19966;DHT22;10144;50.874;4.762;2024-01-11T01:21:45;-4.70;99.90
19966;DHT22;10144;50.874;4.762;2024-01-11T01:24:13;-4.80;99.90
19966;DHT22;10144;50.874;4.762;2024-01-11T01:26:42;-4.90;99.90
19966;DHT22;10144;50.874;4.762;2024-01-11T01:29:11;-4.90;99.90
19966;DHT22;10144;50.874;4.762;2024-01-11T01:31:37;-4.90;99.90
19966;DHT22;10144;50.874;4.762;2024-01-11T01:34:07;-4.80;99.90
19966;DHT22;10144;50.874;4.762;2024-01-11T01:36:39;-4.70;99.90
19966;DHT22;10144;50.874;4.762;2024-01-11T01:39:08;-4.60;99.90
19966;DHT22;10144;50.874;4.762;2024-01-11T01:41:37;-4.70;99.90
19966;DHT22;10144;50.874;4.762;2024-01-11T01:44:18;-4.70;99.90
19966;DHT22;10144;50.874;4.762;2024-01-11T01:46:59;-4.80;99.90
19966;DHT22;10144;50.874;4.762;2024-01-11T01:49:29;-4.90;99.90
19966;DHT22;10144;50.874;4.762;2024-01-11T01:51:58;-5.00;99.90
19966;DHT22;10144;50.874;4.762;2024-01-11T01:54:29;-4.90;99.90
19966;DHT22;10144;50.874;4.762;2024-01-11T01:56:59;-4.90;99.90
19966;DHT22;10144;50.874;4.762;2024-01-11T01:59:26;-4.90;99.90
19966;DHT22;10144;50.874;4.762;2024-01-11T02:01:55;-5.00;99.90
19966;DHT22;10144;50.874;4.762;2024-01-11T02:04:22;-5.00;99.90
19966;DHT22;10144;50.874;4.762;2024-01-11T02:06:51;-4.90;99.90
19966;DHT22;10144;50.874;4.762;2024-01-11T02:09:25;-4.70;99.90
19966;DHT22;10144;50.874;4.762;2024-01-11T02:12:00;-4.70;99.90
19966;DHT22;10144;50.874;4.762;2024-01-11T02:14:42;-4.90;99.90
19966;DHT22;10144;50.874;4.762;2024-01-11T02:17:10;-5.00;99.90
19966;DHT22;10144;50.874;4.762;2024-01-11T02:19:39;-5.00;99.90
19966;DHT22;10144;50.874;4.762;2024-01-11T02:22:11;-5.00;99.90
19966;DHT22;10144;50.874;4.762;2024-01-11T02:24:39;-5.00;99.90
19966;DHT22;10144;50.874;4.762;2024-01-11T02:27:12;-4.90;99.90
19966;DHT22;10144;50.874;4.762;2024-01-11T02:29:38;-5.00;99.90
19966;DHT22;10144;50.874;4.762;2024-01-11T02:32:15;-5.10;99.90
19966;DHT22;10144;50.874;4.762;2024-01-11T02:34:44;-5.10;99.90
19966;DHT22;10144;50.874;4.762;2024-01-11T02:37:23;-5.10;99.90
19966;DHT22;10144;50.874;4.762;2024-01-11T02:39:50;-4.90;99.90
19966;DHT22;10144;50.874;4.762;2024-01-11T02:42:19;-4.90;99.90
19966;DHT22;10144;50.874;4.762;2024-01-11T02:44:48;-4.80;99.90
19966;DHT22;10144;50.874;4.762;2024-01-11T02:47:14;-4.70;99.90
19966;DHT22;10144;50.874;4.762;2024-01-11T02:49:39;-4.80;99.90
19966;DHT22;10144;50.874;4.762;2024-01-11T02:52:09;-4.70;99.90
19966;DHT22;10144;50.874;4.762;2024-01-11T02:54:43;-4.80;99.90
19966;DHT22;10144;50.874;4.762;2024-01-11T02:57:12;-4.90;99.90
19966;DHT22;10144;50.874;4.762;2024-01-11T02:59:40;-4.80;99.90
19966;DHT22;10144;50.874;4.762;2024-01-11T03:02:07;-4.80;99.90
19966;DHT22;10144;50.874;4.762;2024-01-11T03:04:34;-4.90;99.90
19966;DHT22;10144;50.874;4.762;2024-01-11T03:07:03;-4.90;99.90
19966;DHT22;10144;50.874;4.762;2024-01-11T03:09:32;-4.90;99.90
19966;DHT22;10144;50.874;4.762;2024-01-11T03:12:00;-4.90;99.90
19966;DHT22;10144;50.874;4.762;2024-01-11T03:14:29;-5.00;99.90
19966;DHT22;10144;50.874;4.762;2024-01-11T03:16:58;-5.00;99.90
19966;DHT22;10144;50.874;4.762;2024-01-11T03:19:26;-4.90;99.90
19966;DHT22;10144;50.874;4.762;2024-01-11T03:21:59;-4.90;99.90
19966;DHT22;10144;50.874;4.762;2024-01-11T03:24:31;-4.90;99.90
19966;DHT22;10144;50.874;4.762;2024-01-11T03:26:58;-5.00;99.90
19966;DHT22;10144;50.874;4.762;2024-01-11T03:29:27;-5.00;99.90
19966;DHT22;10144;50.874;4.762;2024-01-11T03:32:16;-5.00;99.90
19966;DHT22;10144;50.874;4.762;2024-01-11T03:34:48;-5.00;99.90
19966;DHT22;10144;50.874;4.762;2024-01-11T03:37:16;-4.90;99.90
19966;DHT22;10144;50.874;4.762;2024-01-11T03:39:44;-4.90;99.90
19966;DHT22;10144;50.874;4.762;2024-01-11T03:42:10;-5.00;99.90
19966;DHT22;10144;50.874;4.762;2024-01-11T03:44:42;-4.90;99.90
19966;DHT22;10144;50.874;4.762;2024-01-11T03:47:10;-5.00;99.90
19966;DHT22;10144;50.874;4.762;2024-01-11T03:49:42;-4.90;99.90
19966;DHT22;10144;50.874;4.762;2024-01-11T03:52:07;-4.90;99.90
19966;DHT22;10144;50.874;4.762;2024-01-11T03:54:34;-4.90;99.90
19966;DHT22;10144;50.874;4.762;2024-01-11T03:57:03;-4.90;99.90
19966;DHT22;10144;50.874;4.762;2024-01-11T03:59:32;-4.90;99.90
19966;DHT22;10144;50.874;4.762;2024-01-11T04:01:59;-5.00;99.90
19966;DHT22;10144;50.874;4.762;2024-01-11T04:04:37;-5.00;99.90
19966;DHT22;10144;50.874;4.762;2024-01-11T04:07:06;-5.00;99.90
19966;DHT22;10144;50.874;4.762;2024-01-11T04:09:37;-5.00;99.90
19966;DHT22;10144;50.874;4.762;2024-01-11T04:12:04;-5.00;99.90
19966;DHT22;10144;50.874;4.762;2024-01-11T04:14:33;-5.00;99.90
19966;DHT22;10144;50.874;4.762;2024-01-11T04:17:03;-5.00;99.90
19966;DHT22;10144;50.874;4.762;2024-01-11T04:19:33;-5.00;99.90
19966;DHT22;10144;50.874;4.762;2024-01-11T04:22:18;-5.10;99.90
19966;DHT22;10144;50.874;4.762;2024-01-11T04:25:02;-5.00;99.90
19966;DHT22;10144;50.874;4.762;2024-01-11T04:27:31;-5.00;99.90
19966;DHT22;10144;50.874;4.762;2024-01-11T04:29:59;-5.00;99.90
19966;DHT22;10144;50.874;4.762;2024-01-11T04:32:24;-5.00;99.90
19966;DHT22;10144;50.874;4.762;2024-01-11T04:35:10;-5.00;99.90
19966;DHT22;10144;50.874;4.762;2024-01-11T04:37:36;-5.00;99.90
19966;DHT22;10144;50.874;4.762;2024-01-11T04:40:06;-4.90;99.90
19966;DHT22;10144;50.874;4.762;2024-01-11T04:42:33;-4.90;99.90
19966;DHT22;10144;50.874;4.762;2024-01-11T04:44:59;-4.90;99.90
19966;DHT22;10144;50.874;4.762;2024-01-11T04:47:28;-4.90;99.90
19966;DHT22;10144;50.874;4.762;2024-01-11T04:49:57;-4.90;99.90
19966;DHT22;10144;50.874;4.762;2024-01-11T04:52:22;-4.90;99.90
19966;DHT22;10144;50.874;4.762;2024-01-11T04:54:49;-4.90;99.90
19966;DHT22;10144;50.874;4.762;2024-01-11T04:57:18;-4.90;99.90
19966;DHT22;10144;50.874;4.762;2024-01-11T04:59:47;-4.90;99.90
19966;DHT22;10144;50.874;4.762;2024-01-11T05:02:15;-4.90;99.90
19966;DHT22;10144;50.874;4.762;2024-01-11T05:04:44;-4.80;99.90
19966;DHT22;10144;50.874;4.762;2024-01-11T05:07:13;-4.80;99.90
19966;DHT22;10144;50.874;4.762;2024-01-11T05:09:39;-4.90;99.90
19966;DHT22;10144;50.874;4.762;2024-01-11T05:12:05;-5.00;99.90
19966;DHT22;10144;50.874;4.762;2024-01-11T05:17:41;-5.00;99.90
19966;DHT22;10144;50.874;4.762;2024-01-11T05:20:19;-5.10;99.90
19966;DHT22;10144;50.874;4.762;2024-01-11T05:22:54;-5.10;99.90
19966;DHT22;10144;50.874;4.762;2024-01-11T05:25:34;-5.20;99.90
19966;DHT22;10144;50.874;4.762;2024-01-11T05:28:06;-5.10;99.90
19966;DHT22;10144;50.874;4.762;2024-01-11T05:30:35;-5.20;99.90
19966;DHT22;10144;50.874;4.762;2024-01-11T05:33:00;-5.20;99.90
19966;DHT22;10144;50.874;4.762;2024-01-11T05:35:30;-5.20;99.90
19966;DHT22;10144;50.874;4.762;2024-01-11T05:37:57;-5.20;99.90
19966;DHT22;10144;50.874;4.762;2024-01-11T05:40:30;-5.20;99.90
19966;DHT22;10144;50.874;4.762;2024-01-11T05:42:59;-5.10;99.90
19966;DHT22;10144;50.874;4.762;2024-01-11T05:45:28;-5.20;99.90
19966;DHT22;10144;50.874;4.762;2024-01-11T05:47:57;-5.20;99.90
19966;DHT22;10144;50.874;4.762;2024-01-11T05:50:29;-5.40;99.90
19966;DHT22;10144;50.874;4.762;2024-01-11T05:52:58;-5.40;99.90
19966;DHT22;10144;50.874;4.762;2024-01-11T05:55:27;-5.40;99.90
19966;DHT22;10144;50.874;4.762;2024-01-11T05:57:53;-5.40;99.90
19966;DHT22;10144;50.874;4.762;2024-01-11T06:00:24;-5.50;99.90
19966;DHT22;10144;50.874;4.762;2024-01-11T06:02:50;-5.50;99.90
19966;DHT22;10144;50.874;4.762;2024-01-11T06:05:19;-5.50;99.90
19966;DHT22;10144;50.874;4.762;2024-01-11T06:07:47;-5.50;99.90
19966;DHT22;10144;50.874;4.762;2024-01-11T06:10:17;-5.60;99.90
19966;DHT22;10144;50.874;4.762;2024-01-11T06:12:45;-5.60;99.90
19966;DHT22;10144;50.874;4.762;2024-01-11T06:15:14;-5.60;99.90
19966;DHT22;10144;50.874;4.762;2024-01-11T06:17:42;-5.60;99.90
19966;DHT22;10144;50.874;4.762;2024-01-11T06:20:11;-5.50;99.90
19966;DHT22;10144;50.874;4.762;2024-01-11T06:22:42;-5.60;99.90
19966;DHT22;10144;50.874;4.762;2024-01-11T06:25:11;-5.60;99.90
19966;DHT22;10144;50.874;4.762;2024-01-11T06:27:42;-5.60;99.90
19966;DHT22;10144;50.874;4.762;2024-01-11T06:30:10;-5.70;99.90
19966;DHT22;10144;50.874;4.762;2024-01-11T06:32:36;-5.60;99.90
19966;DHT22;10144;50.874;4.762;2024-01-11T06:35:02;-5.70;99.90
19966;DHT22;10144;50.874;4.762;2024-01-11T06:37:38;-5.60;99.90
19966;DHT22;10144;50.874;4.762;2024-01-11T06:40:26;-5.60;99.90
19966;DHT22;10144;50.874;4.762;2024-01-11T06:42:54;-5.60;99.90
19966;DHT22;10144;50.874;4.762;2024-01-11T06:45:20;-5.80;99.90
19966;DHT22;10144;50.874;4.762;2024-01-11T06:47:48;-5.80;99.90
19966;DHT22;10144;50.874;4.762;2024-01-11T06:50:16;-5.80;99.90
19966;DHT22;10144;50.874;4.762;2024-01-11T06:52:43;-5.90;99.90
19966;DHT22;10144;50.874;4.762;2024-01-11T06:55:14;-5.80;99.90
19966;DHT22;10144;50.874;4.762;2024-01-11T06:57:47;-5.90;99.90
19966;DHT22;10144;50.874;4.762;2024-01-11T07:00:13;-5.90;99.90
19966;DHT22;10144;50.874;4.762;2024-01-11T07:02:39;-5.90;99.90
19966;DHT22;10144;50.874;4.762;2024-01-11T07:05:08;-5.90;99.90
19966;DHT22;10144;50.874;4.762;2024-01-11T07:07:34;-6.00;99.90
19966;DHT22;10144;50.874;4.762;2024-01-11T07:09:59;-6.20;99.90
19966;DHT22;10144;50.874;4.762;2024-01-11T07:12:25;-6.40;99.90
19966;DHT22;10144;50.874;4.762;2024-01-11T07:14:51;-6.40;99.90
19966;DHT22;10144;50.874;4.762;2024-01-11T07:17:17;-6.40;99.90
19966;DHT22;10144;50.874;4.762;2024-01-11T07:19:43;-6.30;99.90
19966;DHT22;10144;50.874;4.762;2024-01-11T07:22:08;-6.30;99.90
19966;DHT22;10144;50.874;4.762;2024-01-11T07:24:34;-6.30;99.90
19966;DHT22;10144;50.874;4.762;2024-01-11T07:27:06;-6.30;99.90
19966;DHT22;10144;50.874;4.762;2024-01-11T07:29:33;-6.10;99.90
19966;DHT22;10144;50.874;4.762;2024-01-11T07:31:59;-6.00;99.90
19966;DHT22;10144;50.874;4.762;2024-01-11T07:34:25;-5.90;99.90
19966;DHT22;10144;50.874;4.762;2024-01-11T07:36:52;-5.90;99.90
19966;DHT22;10144;50.874;4.762;2024-01-11T07:39:18;-5.90;99.90
19966;DHT22;10144;50.874;4.762;2024-01-11T07:41:45;-5.80;99.90
19966;DHT22;10144;50.874;4.762;2024-01-11T07:44:11;-5.80;99.90
19966;DHT22;10144;50.874;4.762;2024-01-11T07:46:44;-5.80;99.90
19966;DHT22;10144;50.874;4.762;2024-01-11T07:49:10;-5.70;99.90
19966;DHT22;10144;50.874;4.762;2024-01-11T07:51:35;-5.70;99.90
19966;DHT22;10144;50.874;4.762;2024-01-11T07:54:01;-5.80;99.90
19966;DHT22;10144;50.874;4.762;2024-01-11T07:56:29;-5.80;99.90
19966;DHT22;10144;50.874;4.762;2024-01-11T07:58:55;-5.80;99.90
19966;DHT22;10144;50.874;4.762;2024-01-11T08:01:20;-5.80;99.90
19966;DHT22;10144;50.874;4.762;2024-01-11T08:03:46;-5.70;99.90
19966;DHT22;10144;50.874;4.762;2024-01-11T08:06:12;-5.60;99.90
19966;DHT22;10144;50.874;4.762;2024-01-11T08:08:39;-5.40;99.90
19966;DHT22;10144;50.874;4.762;2024-01-11T08:11:07;-4.90;99.90
19966;DHT22;10144;50.874;4.762;2024-01-11T08:13:34;-4.70;99.90
19966;DHT22;10144;50.874;4.762;2024-01-11T08:16:03;-4.60;99.90
19966;DHT22;10144;50.874;4.762;2024-01-11T08:18:30;-4.30;99.90
19966;DHT22;10144;50.874;4.762;2024-01-11T08:20:56;-3.50;99.90
19966;DHT22;10144;50.874;4.762;2024-01-11T08:23:25;-2.10;99.90
19966;DHT22;10144;50.874;4.762;2024-01-11T08:25:51;-0.80;99.90
19966;DHT22;10144;50.874;4.762;2024-01-11T08:28:23;0.60;99.90
19966;DHT22;10144;50.874;4.762;2024-01-11T08:30:48;2.10;99.90
19966;DHT22;10144;50.874;4.762;2024-01-11T08:33:16;3.20;66.60
19966;DHT22;10144;50.874;4.762;2024-01-11T08:35:44;3.90;1.00
19966;DHT22;10144;50.874;4.762;2024-01-11T08:38:10;5.20;1.00
19966;DHT22;10144;50.874;4.762;2024-01-11T08:40:37;6.10;1.00
19966;DHT22;10144;50.874;4.762;2024-01-11T08:43:08;7.10;1.00
19966;DHT22;10144;50.874;4.762;2024-01-11T08:45:34;8.30;1.00
19966;DHT22;10144;50.874;4.762;2024-01-11T08:48:00;8.80;99.90
19966;DHT22;10144;50.874;4.762;2024-01-11T08:50:26;9.10;99.90
19966;DHT22;10144;50.874;4.762;2024-01-11T08:52:53;9.30;1.00
19966;DHT22;10144;50.874;4.762;2024-01-11T08:55:20;8.70;1.00
19966;DHT22;10144;50.874;4.762;2024-01-11T08:57:46;9.30;66.10
19966;DHT22;10144;50.874;4.762;2024-01-11T09:00:13;10.10;99.90
19966;DHT22;10144;50.874;4.762;2024-01-11T09:02:43;10.50;99.90
19966;DHT22;10144;50.874;4.762;2024-01-11T09:05:09;10.70;99.90
19966;DHT22;10144;50.874;4.762;2024-01-11T09:07:34;9.60;1.00
19966;DHT22;10144;50.874;4.762;2024-01-11T09:10:03;10.00;1.00
19966;DHT22;10144;50.874;4.762;2024-01-11T09:12:28;10.50;1.00
19966;DHT22;10144;50.874;4.762;2024-01-11T09:14:54;10.70;1.00
19966;DHT22;10144;50.874;4.762;2024-01-11T09:17:20;10.40;1.00
19966;DHT22;10144;50.874;4.762;2024-01-11T09:19:49;10.90;1.00
19966;DHT22;10144;50.874;4.762;2024-01-11T09:22:16;11.10;1.00
19966;DHT22;10144;50.874;4.762;2024-01-11T09:24:43;10.70;1.00
19966;DHT22;10144;50.874;4.762;2024-01-11T09:27:08;11.60;1.00
19966;DHT22;10144;50.874;4.762;2024-01-11T09:29:34;12.40;99.90
19966;DHT22;10144;50.874;4.762;2024-01-11T09:32:00;13.80;99.90
19966;DHT22;10144;50.874;4.762;2024-01-11T09:34:26;14.00;1.00
19966;DHT22;10144;50.874;4.762;2024-01-11T09:36:51;13.80;1.00
19966;DHT22;10144;50.874;4.762;2024-01-11T09:39:17;14.10;1.00
19966;DHT22;10144;50.874;4.762;2024-01-11T09:41:55;14.70;99.90
19966;DHT22;10144;50.874;4.762;2024-01-11T09:44:24;14.50;99.90
19966;DHT22;10144;50.874;4.762;2024-01-11T09:46:50;15.10;99.90
19966;DHT22;10144;50.874;4.762;2024-01-11T09:49:16;15.80;99.90
19966;DHT22;10144;50.874;4.762;2024-01-11T09:51:43;16.60;99.90
19966;DHT22;10144;50.874;4.762;2024-01-11T09:54:10;16.20;99.90
19966;DHT22;10144;50.874;4.762;2024-01-11T09:56:36;16.50;99.90
19966;DHT22;10144;50.874;4.762;2024-01-11T09:59:05;15.80;99.90
19966;DHT22;10144;50.874;4.762;2024-01-11T10:01:32;15.50;99.90
19966;DHT22;10144;50.874;4.762;2024-01-11T10:03:58;15.80;1.00
19966;DHT22;10144;50.874;4.762;2024-01-11T10:06:25;14.80;1.00
19966;DHT22;10144;50.874;4.762;2024-01-11T10:08:51;15.00;1.00
19966;DHT22;10144;50.874;4.762;2024-01-11T10:11:18;15.50;1.00
19966;DHT22;10144;50.874;4.762;2024-01-11T10:13:44;16.80;1.00
19966;DHT22;10144;50.874;4.762;2024-01-11T10:16:12;17.30;99.90
19966;DHT22;10144;50.874;4.762;2024-01-11T10:18:39;17.00;99.90
19966;DHT22;10144;50.874;4.762;2024-01-11T10:21:05;15.70;99.90
19966;DHT22;10144;50.874;4.762;2024-01-11T10:23:33;16.00;99.90
19966;DHT22;10144;50.874;4.762;2024-01-11T10:26:00;15.70;99.90
19966;DHT22;10144;50.874;4.762;2024-01-11T10:28:29;15.50;99.90
19966;DHT22;10144;50.874;4.762;2024-01-11T10:30:55;14.40;99.90
19966;DHT22;10144;50.874;4.762;2024-01-11T10:33:29;14.60;99.90
19966;DHT22;10144;50.874;4.762;2024-01-11T10:35:54;13.90;99.90
19966;DHT22;10144;50.874;4.762;2024-01-11T10:38:22;14.10;99.90
19966;DHT22;10144;50.874;4.762;2024-01-11T10:40:48;14.10;99.90
19966;DHT22;10144;50.874;4.762;2024-01-11T10:43:19;13.90;99.90
19966;DHT22;10144;50.874;4.762;2024-01-11T10:45:48;13.60;99.90
19966;DHT22;10144;50.874;4.762;2024-01-11T10:48:15;13.80;99.90
19966;DHT22;10144;50.874;4.762;2024-01-11T10:50:46;14.40;99.90
19966;DHT22;10144;50.874;4.762;2024-01-11T10:56:06;14.80;99.90
19966;DHT22;10144;50.874;4.762;2024-01-11T10:58:35;14.60;99.90
19966;DHT22;10144;50.874;4.762;2024-01-11T11:01:02;14.60;99.90
19966;DHT22;10144;50.874;4.762;2024-01-11T11:03:30;14.50;99.90
19966;DHT22;10144;50.874;4.762;2024-01-11T11:05:58;13.30;99.90
19966;DHT22;10144;50.874;4.762;2024-01-11T11:08:24;13.30;99.90
19966;DHT22;10144;50.874;4.762;2024-01-11T11:11:01;11.90;99.90
19966;DHT22;10144;50.874;4.762;2024-01-11T11:13:30;11.40;99.90
19966;DHT22;10144;50.874;4.762;2024-01-11T11:15:57;10.60;99.90
19966;DHT22;10144;50.874;4.762;2024-01-11T11:18:25;10.20;99.90
19966;DHT22;10144;50.874;4.762;2024-01-11T11:20:51;9.00;99.90
19966;DHT22;10144;50.874;4.762;2024-01-11T11:23:18;7.20;99.90
19966;DHT22;10144;50.874;4.762;2024-01-11T11:25:49;7.00;99.90
19966;DHT22;10144;50.874;4.762;2024-01-11T11:28:17;7.80;99.90
19966;DHT22;10144;50.874;4.762;2024-01-11T11:30:48;8.60;99.90
19966;DHT22;10144;50.874;4.762;2024-01-11T11:33:22;10.00;99.90
19966;DHT22;10144;50.874;4.762;2024-01-11T11:35:53;10.80;99.90
19966;DHT22;10144;50.874;4.762;2024-01-11T11:38:23;11.30;99.90
19966;DHT22;10144;50.874;4.762;2024-01-11T11:40:52;12.10;99.90
19966;DHT22;10144;50.874;4.762;2024-01-11T11:43:21;12.70;99.90
19966;DHT22;10144;50.874;4.762;2024-01-11T11:45:48;13.00;99.90
19966;DHT22;10144;50.874;4.762;2024-01-11T11:51:22;12.20;99.90
19966;DHT22;10144;50.874;4.762;2024-01-11T11:53:49;10.90;99.90
19966;DHT22;10144;50.874;4.762;2024-01-11T11:56:20;10.00;99.90
19966;DHT22;10144;50.874;4.762;2024-01-11T11:58:47;9.90;99.90
19966;DHT22;10144;50.874;4.762;2024-01-11T12:01:14;10.00;99.90
19966;DHT22;10144;50.874;4.762;2024-01-11T12:03:41;10.30;99.90
19966;DHT22;10144;50.874;4.762;2024-01-11T12:06:09;10.00;99.90
19966;DHT22;10144;50.874;4.762;2024-01-11T12:08:38;10.10;99.90
19966;DHT22;10144;50.874;4.762;2024-01-11T12:11:06;8.90;99.90
19966;DHT22;10144;50.874;4.762;2024-01-11T12:13:33;8.80;99.90
19966;DHT22;10144;50.874;4.762;2024-01-11T12:15:59;9.60;99.90
19966;DHT22;10144;50.874;4.762;2024-01-11T12:18:25;9.60;99.90
19966;DHT22;10144;50.874;4.762;2024-01-11T12:20:52;9.60;99.90
19966;DHT22;10144;50.874;4.762;2024-01-11T12:23:18;10.00;99.90
19966;DHT22;10144;50.874;4.762;2024-01-11T12:25:44;10.10;99.90
19966;DHT22;10144;50.874;4.762;2024-01-11T12:28:10;10.00;99.90
19966;DHT22;10144;50.874;4.762;2024-01-11T12:30:38;10.00;99.90
19966;DHT22;10144;50.874;4.762;2024-01-11T12:33:04;9.70;99.90
19966;DHT22;10144;50.874;4.762;2024-01-11T12:35:31;9.40;99.90
19966;DHT22;10144;50.874;4.762;2024-01-11T12:38:04;9.10;99.90
19966;DHT22;10144;50.874;4.762;2024-01-11T12:40:37;9.10;99.90
19966;DHT22;10144;50.874;4.762;2024-01-11T12:43:04;9.60;99.90
19966;DHT22;10144;50.874;4.762;2024-01-11T12:45:31;8.90;99.90
19966;DHT22;10144;50.874;4.762;2024-01-11T12:47:59;8.60;99.90
19966;DHT22;10144;50.874;4.762;2024-01-11T12:50:26;8.70;99.90
19966;DHT22;10144;50.874;4.762;2024-01-11T12:53:15;8.90;99.90
19966;DHT22;10144;50.874;4.762;2024-01-11T12:55:52;8.90;99.90
19966;DHT22;10144;50.874;4.762;2024-01-11T12:58:26;8.70;99.90
19966;DHT22;10144;50.874;4.762;2024-01-11T13:00:52;7.90;99.90
19966;DHT22;10144;50.874;4.762;2024-01-11T13:03:19;7.60;99.90
19966;DHT22;10144;50.874;4.762;2024-01-11T13:05:46;7.40;99.90
19966;DHT22;10144;50.874;4.762;2024-01-11T13:08:12;7.00;99.90
19966;DHT22;10144;50.874;4.762;2024-01-11T13:10:37;6.50;99.90
19966;DHT22;10144;50.874;4.762;2024-01-11T13:13:04;6.40;99.90
19966;DHT22;10144;50.874;4.762;2024-01-11T13:15:31;6.80;99.90
19966;DHT22;10144;50.874;4.762;2024-01-11T13:17:57;6.80;99.90
19966;DHT22;10144;50.874;4.762;2024-01-11T13:20:23;6.40;99.90
19966;DHT22;10144;50.874;4.762;2024-01-11T13:25:36;5.50;99.90
19966;DHT22;10144;50.874;4.762;2024-01-11T13:28:02;5.00;99.90
19966;DHT22;10144;50.874;4.762;2024-01-11T13:30:28;4.70;99.90
19966;DHT22;10144;50.874;4.762;2024-01-11T13:32:53;4.50;99.90
19966;DHT22;10144;50.874;4.762;2024-01-11T13:35:19;4.40;99.90
19966;DHT22;10144;50.874;4.762;2024-01-11T13:37:46;4.70;99.90
19966;DHT22;10144;50.874;4.762;2024-01-11T13:40:12;4.60;99.90
19966;DHT22;10144;50.874;4.762;2024-01-11T13:42:39;4.40;99.90
19966;DHT22;10144;50.874;4.762;2024-01-11T13:45:05;4.10;99.90
19966;DHT22;10144;50.874;4.762;2024-01-11T13:47:34;3.80;99.90
19966;DHT22;10144;50.874;4.762;2024-01-11T13:50:00;3.30;99.90
19966;DHT22;10144;50.874;4.762;2024-01-11T13:52:26;2.60;99.90
19966;DHT22;10144;50.874;4.762;2024-01-11T13:54:51;2.00;99.90
19966;DHT22;10144;50.874;4.762;2024-01-11T13:57:17;1.80;99.90
19966;DHT22;10144;50.874;4.762;2024-01-11T13:59:43;1.70;99.90
19966;DHT22;10144;50.874;4.762;2024-01-11T14:02:08;1.50;99.90
19966;DHT22;10144;50.874;4.762;2024-01-11T14:04:35;1.40;99.90
19966;DHT22;10144;50.874;4.762;2024-01-11T14:07:01;1.50;99.90
19966;DHT22;10144;50.874;4.762;2024-01-11T14:09:29;1.40;99.90
19966;DHT22;10144;50.874;4.762;2024-01-11T14:11:54;1.20;99.90
19966;DHT22;10144;50.874;4.762;2024-01-11T14:14:20;1.20;99.90
19966;DHT22;10144;50.874;4.762;2024-01-11T14:16:46;1.20;99.90
19966;DHT22;10144;50.874;4.762;2024-01-11T14:19:12;1.00;99.90
19966;DHT22;10144;50.874;4.762;2024-01-11T14:21:38;0.90;99.90
19966;DHT22;10144;50.874;4.762;2024-01-11T14:24:05;0.70;99.90
19966;DHT22;10144;50.874;4.762;2024-01-11T14:26:32;0.70;99.90
19966;DHT22;10144;50.874;4.762;2024-01-11T14:28:58;0.70;99.90
19966;DHT22;10144;50.874;4.762;2024-01-11T14:31:24;0.80;99.90
19966;DHT22;10144;50.874;4.762;2024-01-11T14:33:50;0.80;99.90
19966;DHT22;10144;50.874;4.762;2024-01-11T14:36:16;0.80;99.90
19966;DHT22;10144;50.874;4.762;2024-01-11T14:38:42;0.90;99.90
19966;DHT22;10144;50.874;4.762;2024-01-11T14:41:08;0.90;99.90
19966;DHT22;10144;50.874;4.762;2024-01-11T14:43:37;0.90;99.90
19966;DHT22;10144;50.874;4.762;2024-01-11T14:46:03;0.80;99.90
19966;DHT22;10144;50.874;4.762;2024-01-11T14:48:29;0.80;99.90
19966;DHT22;10144;50.874;4.762;2024-01-11T14:50:57;0.70;99.90
19966;DHT22;10144;50.874;4.762;2024-01-11T14:53:23;0.80;99.90
19966;DHT22;10144;50.874;4.762;2024-01-11T14:55:49;0.80;99.90
19966;DHT22;10144;50.874;4.762;2024-01-11T14:58:15;0.80;99.90
19966;DHT22;10144;50.874;4.762;2024-01-11T15:00:42;0.70;99.90
19966;DHT22;10144;50.874;4.762;2024-01-11T15:03:07;0.60;99.90
19966;DHT22;10144;50.874;4.762;2024-01-11T15:05:33;0.50;99.90
19966;DHT22;10144;50.874;4.762;2024-01-11T15:07:59;0.50;99.90
19966;DHT22;10144;50.874;4.762;2024-01-11T15:10:25;0.50;99.90
19966;DHT22;10144;50.874;4.762;2024-01-11T15:12:51;0.50;99.90
19966;DHT22;10144;50.874;4.762;2024-01-11T15:15:16;0.40;99.90
19966;DHT22;10144;50.874;4.762;2024-01-11T15:17:43;0.40;99.90
19966;DHT22;10144;50.874;4.762;2024-01-11T15:20:09;0.50;99.90
19966;DHT22;10144;50.874;4.762;2024-01-11T15:22:35;0.50;99.90
19966;DHT22;10144;50.874;4.762;2024-01-11T15:25:01;0.40;99.90
19966;DHT22;10144;50.874;4.762;2024-01-11T15:27:27;0.20;99.90
19966;DHT22;10144;50.874;4.762;2024-01-11T15:29:52;0.30;99.90
19966;DHT22;10144;50.874;4.762;2024-01-11T15:32:20;0.30;99.90
19966;DHT22;10144;50.874;4.762;2024-01-11T15:34:47;0.30;99.90
19966;DHT22;10144;50.874;4.762;2024-01-11T15:37:13;0.20;99.90
19966;DHT22;10144;50.874;4.762;2024-01-11T15:39:39;0.10;99.90
19966;DHT22;10144;50.874;4.762;2024-01-11T15:42:05;0.10;99.90
19966;DHT22;10144;50.874;4.762;2024-01-11T15:44:31;0.10;99.90
19966;DHT22;10144;50.874;4.762;2024-01-11T15:46:59;0.00;99.90
19966;DHT22;10144;50.874;4.762;2024-01-11T15:49:25;0.00;99.90
19966;DHT22;10144;50.874;4.762;2024-01-11T15:51:53;-0.10;99.90
19966;DHT22;10144;50.874;4.762;2024-01-11T15:54:19;-0.20;99.90
19966;DHT22;10144;50.874;4.762;2024-01-11T15:56:46;-0.30;99.90